Emington, Illinois
Current Conditions -  °F | °C
As of 7:15 PM on Friday 28 Nov 2014 (Local Time) from KPNT Reporting Station
Clear Clear  
Wind Chill: 26°   Ceiling: Unl
Heat Index: 35°   Visibility: 7mi
Dew Point: 32°   Wind: 16mph
Humidity: 88%   Direction: 160°SSE
Pressure: 29.95"   Gusts: 20mph
Location:  40.97°N, 88.36°W
Report Text: KPNT 290115Z AUTO 16014G17KT 7SM CLR 02/00 A2995 RMK AO2 T00190001
Loading
Personal Weather Stations






























Interactive Weather Map New forecast layout! Learn more

10-Day Weather Forecast

Advertisements
Track Severe Weather on mobile